M/V Pat Voss — WDE7886 — position and weather

sailwx.info

Track history (hours):
 
Tides and Currents Weather Stations Pressure Air Temp Water Temp Dewpoint Dewpoint Depression Visibility Wind Speed Wind Dir Waves Ship Positions

M/V Pat Voss

Owner: Blessey Enterprises, Inc., Harahan, LA. More information available from US FCC via Universal Licensing System and Coast Guard Vessel Documentation Center.

Last reported at 2017-Sep-14 06:54 UTC. Time now 2017-Sep-24 19:38 UTC.
Position N 38°54' W 090°31'.
Warning: this ship's position is 10 days out of date.

Length 29 m; draft 2.9 m.

Type: Towing. MMSI: 367398930.

Date/timePositionNaut miles runAvg speedWind from/ knotsBaromVisibWave heightAir tempDewpointWater temp
2017-Sep-14 06:54N 38°54' W 090°31'2 4.2
2017-Sep-14 06:30N 38°56' W 090°30'2 4.5
2017-Sep-14 06:00N 38°57' W 090°28'0 0.2
2017-Sep-14 05:30N 38°57' W 090°28'0 0.0
2017-Sep-14 05:00N 38°57' W 090°28'0 0.0
2017-Sep-14 04:30N 38°57' W 090°28'0 0.0
2017-Sep-14 04:00N 38°57' W 090°28'0 0.0
2017-Sep-14 03:30N 38°57' W 090°28'0 0.0
2017-Sep-14 03:00N 38°57' W 090°28'0 0.0
2017-Sep-14 02:30N 38°57' W 090°28'0 0.0
2017-Sep-14 02:00N 38°57' W 090°28'0 0.1
2017-Sep-14 01:30N 38°57' W 090°28'2 4.3
2017-Sep-14 01:00N 38°58' W 090°25'3 5.1
2017-Sep-14 00:30N 38°57' W 090°22'3 5.3
2017-Sep-13 23:58N 38°56' W 090°19'  
2017-Sep-06 13:24N 38°54' W 090°12'2 5.0
2017-Sep-06 13:00N 38°55' W 090°14'1 1.5
2017-Sep-06 12:27N 38°55' W 090°15'0 0.0
2017-Sep-06 01:40N 38°55' W 090°15'1 2.5
2017-Sep-06 01:25N 38°55' W 090°16'2 4.1
2017-Sep-06 01:00N 38°55' W 090°18'3 5.2
2017-Sep-06 00:30N 38°57' W 090°21'3 5.6
2017-Sep-06 00:00N 38°58' W 090°24'3 5.5
2017-Sep-05 23:30N 38°57' W 090°28'3 5.3
2017-Sep-05 23:00N 38°56' W 090°30'3 5.5
2017-Sep-05 22:29N 38°53' W 090°32'  
Track history (hours):
 
Tides and Currents Weather Stations Pressure Air Temp Water Temp Dewpoint Dewpoint Depression Visibility Wind Speed Wind Dir Waves Ship Positions

M/V Pat Voss

Owner: Blessey Enterprises, Inc., Harahan, LA. More information available from US FCC via Universal Licensing System and Coast Guard Vessel Documentation Center.

Last reported at 2017-Sep-14 06:54 UTC. Time now 2017-Sep-24 19:38 UTC.
Position N 38°54' W 090°31'.
Warning: this ship's position is 10 days out of date.

Length 29 m; draft 2.9 m.

Type: Towing. MMSI: 367398930.

Date/timePositionNaut miles runAvg speedWind from/ knotsBaromVisibWave heightAir tempDewpointWater temp
2017-Sep-14 06:54N 38°54' W 090°31'2 4.2
2017-Sep-14 06:30N 38°56' W 090°30'2 4.5
2017-Sep-14 06:00N 38°57' W 090°28'0 0.2
2017-Sep-14 05:30N 38°57' W 090°28'0 0.0
2017-Sep-14 05:00N 38°57' W 090°28'0 0.0
2017-Sep-14 04:30N 38°57' W 090°28'0 0.0
2017-Sep-14 04:00N 38°57' W 090°28'0 0.0
2017-Sep-14 03:30N 38°57' W 090°28'0 0.0
2017-Sep-14 03:00N 38°57' W 090°28'0 0.0
2017-Sep-14 02:30N 38°57' W 090°28'0 0.0
2017-Sep-14 02:00N 38°57' W 090°28'0 0.1
2017-Sep-14 01:30N 38°57' W 090°28'2 4.3
2017-Sep-14 01:00N 38°58' W 090°25'3 5.1
2017-Sep-14 00:30N 38°57' W 090°22'3 5.3
2017-Sep-13 23:58N 38°56' W 090°19'  
2017-Sep-06 13:24N 38°54' W 090°12'2 5.0
2017-Sep-06 13:00N 38°55' W 090°14'1 1.5
2017-Sep-06 12:27N 38°55' W 090°15'0 0.0
2017-Sep-06 01:40N 38°55' W 090°15'1 2.5
2017-Sep-06 01:25N 38°55' W 090°16'2 4.1
2017-Sep-06 01:00N 38°55' W 090°18'3 5.2
2017-Sep-06 00:30N 38°57' W 090°21'3 5.6
2017-Sep-06 00:00N 38°58' W 090°24'3 5.5
2017-Sep-05 23:30N 38°57' W 090°28'3 5.3
2017-Sep-05 23:00N 38°56' W 090°30'3 5.5
2017-Sep-05 22:29N 38°53' W 090°32'  

Dump ship's entire track history